sensor_id;sensor_type;location;lat;lon;timestamp;P1;durP1;ratioP1;P2;durP2;ratioP2
16288;SDS011;26089;43.538;5.250;2023-02-21T00:01:55;36.93;;;21.87;;
16288;SDS011;26089;43.538;5.250;2023-02-21T00:04:40;37.33;;;22.37;;
16288;SDS011;26089;43.538;5.250;2023-02-21T00:07:25;33.00;;;20.70;;
16288;SDS011;26089;43.538;5.250;2023-02-21T00:10:10;36.20;;;21.87;;
16288;SDS011;26089;43.538;5.250;2023-02-21T00:12:57;35.37;;;20.67;;
16288;SDS011;26089;43.538;5.250;2023-02-21T00:15:43;36.73;;;22.53;;
16288;SDS011;26089;43.538;5.250;2023-02-21T00:18:31;39.87;;;24.13;;
16288;SDS011;26089;43.538;5.250;2023-02-21T00:21:16;39.00;;;23.47;;
16288;SDS011;26089;43.538;5.250;2023-02-21T00:24:01;37.07;;;22.40;;
16288;SDS011;26089;43.538;5.250;2023-02-21T00:26:45;38.33;;;21.90;;
16288;SDS011;26089;43.538;5.250;2023-02-21T00:29:30;42.63;;;24.43;;
16288;SDS011;26089;43.538;5.250;2023-02-21T00:32:16;31.93;;;21.50;;
16288;SDS011;26089;43.538;5.250;2023-02-21T00:35:00;29.93;;;19.33;;
16288;SDS011;26089;43.538;5.250;2023-02-21T00:37:47;29.77;;;20.70;;
16288;SDS011;26089;43.538;5.250;2023-02-21T00:40:32;27.83;;;19.83;;
16288;SDS011;26089;43.538;5.250;2023-02-21T00:43:16;29.87;;;20.03;;
16288;SDS011;26089;43.538;5.250;2023-02-21T00:46:00;27.57;;;19.80;;
16288;SDS011;26089;43.538;5.250;2023-02-21T00:48:46;30.37;;;20.57;;
16288;SDS011;26089;43.538;5.250;2023-02-21T00:51:30;31.77;;;18.90;;
16288;SDS011;26089;43.538;5.250;2023-02-21T00:54:15;34.20;;;20.57;;
16288;SDS011;26089;43.538;5.250;2023-02-21T00:56:59;31.33;;;20.67;;
16288;SDS011;26089;43.538;5.250;2023-02-21T00:59:44;36.80;;;21.00;;
16288;SDS011;26089;43.538;5.250;2023-02-21T01:02:28;34.13;;;20.47;;
16288;SDS011;26089;43.538;5.250;2023-02-21T01:05:14;35.67;;;20.80;;
16288;SDS011;26089;43.538;5.250;2023-02-21T01:07:58;34.67;;;22.13;;
16288;SDS011;26089;43.538;5.250;2023-02-21T01:10:43;28.67;;;20.20;;
16288;SDS011;26089;43.538;5.250;2023-02-21T01:13:27;30.80;;;20.57;;
16288;SDS011;26089;43.538;5.250;2023-02-21T01:16:12;32.03;;;20.10;;
16288;SDS011;26089;43.538;5.250;2023-02-21T01:18:56;31.30;;;19.23;;
16288;SDS011;26089;43.538;5.250;2023-02-21T01:21:42;28.90;;;19.17;;
16288;SDS011;26089;43.538;5.250;2023-02-21T01:24:26;31.87;;;20.87;;
16288;SDS011;26089;43.538;5.250;2023-02-21T01:27:11;28.23;;;19.63;;
16288;SDS011;26089;43.538;5.250;2023-02-21T01:29:55;38.93;;;22.03;;
16288;SDS011;26089;43.538;5.250;2023-02-21T01:32:40;31.93;;;21.77;;
16288;SDS011;26089;43.538;5.250;2023-02-21T01:35:24;29.70;;;21.10;;
16288;SDS011;26089;43.538;5.250;2023-02-21T01:38:10;33.77;;;20.70;;
16288;SDS011;26089;43.538;5.250;2023-02-21T01:40:55;32.43;;;19.70;;
16288;SDS011;26089;43.538;5.250;2023-02-21T01:43:54;28.23;;;20.30;;
16288;SDS011;26089;43.538;5.250;2023-02-21T01:46:40;29.60;;;19.70;;
16288;SDS011;26089;43.538;5.250;2023-02-21T01:49:25;33.63;;;21.00;;
16288;SDS011;26089;43.538;5.250;2023-02-21T01:52:09;30.30;;;20.53;;
16288;SDS011;26089;43.538;5.250;2023-02-21T01:54:55;31.83;;;20.60;;
16288;SDS011;26089;43.538;5.250;2023-02-21T01:57:41;29.17;;;20.10;;
16288;SDS011;26089;43.538;5.250;2023-02-21T02:00:28;28.33;;;21.00;;
16288;SDS011;26089;43.538;5.250;2023-02-21T02:03:14;31.30;;;19.97;;
16288;SDS011;26089;43.538;5.250;2023-02-21T02:06:00;30.30;;;20.60;;
16288;SDS011;26089;43.538;5.250;2023-02-21T02:08:46;32.67;;;20.83;;
16288;SDS011;26089;43.538;5.250;2023-02-21T02:11:45;33.80;;;21.23;;
16288;SDS011;26089;43.538;5.250;2023-02-21T02:14:48;29.13;;;19.37;;
16288;SDS011;26089;43.538;5.250;2023-02-21T02:17:43;29.27;;;18.57;;
16288;SDS011;26089;43.538;5.250;2023-02-21T02:23:59;30.10;;;19.50;;
16288;SDS011;26089;43.538;5.250;2023-02-21T02:27:03;27.27;;;18.27;;
16288;SDS011;26089;43.538;5.250;2023-02-21T02:30:12;25.30;;;18.17;;
16288;SDS011;26089;43.538;5.250;2023-02-21T02:35:57;27.40;;;17.80;;
16288;SDS011;26089;43.538;5.250;2023-02-21T02:38:32;22.53;;;16.87;;
16288;SDS011;26089;43.538;5.250;2023-02-21T02:41:05;22.43;;;17.03;;
16288;SDS011;26089;43.538;5.250;2023-02-21T02:43:37;21.37;;;16.70;;
16288;SDS011;26089;43.538;5.250;2023-02-21T02:46:10;25.83;;;16.33;;
16288;SDS011;26089;43.538;5.250;2023-02-21T02:48:43;23.73;;;16.37;;
16288;SDS011;26089;43.538;5.250;2023-02-21T02:51:14;20.97;;;15.63;;
16288;SDS011;26089;43.538;5.250;2023-02-21T02:53:42;22.17;;;16.17;;
16288;SDS011;26089;43.538;5.250;2023-02-21T02:56:09;24.97;;;17.57;;
16288;SDS011;26089;43.538;5.250;2023-02-21T02:58:39;21.93;;;17.00;;
16288;SDS011;26089;43.538;5.250;2023-02-21T03:01:15;28.30;;;17.23;;
16288;SDS011;26089;43.538;5.250;2023-02-21T03:03:56;21.47;;;15.67;;
16288;SDS011;26089;43.538;5.250;2023-02-21T03:06:47;23.77;;;16.10;;
16288;SDS011;26089;43.538;5.250;2023-02-21T03:09:21;25.30;;;16.70;;
16288;SDS011;26089;43.538;5.250;2023-02-21T03:11:57;20.63;;;16.30;;
16288;SDS011;26089;43.538;5.250;2023-02-21T03:14:35;24.70;;;16.00;;
16288;SDS011;26089;43.538;5.250;2023-02-21T03:17:07;22.47;;;15.97;;
16288;SDS011;26089;43.538;5.250;2023-02-21T03:19:37;24.77;;;15.67;;
16288;SDS011;26089;43.538;5.250;2023-02-21T03:22:08;21.57;;;15.50;;
16288;SDS011;26089;43.538;5.250;2023-02-21T03:24:38;23.40;;;15.60;;
16288;SDS011;26089;43.538;5.250;2023-02-21T03:27:08;24.93;;;17.67;;
16288;SDS011;26089;43.538;5.250;2023-02-21T03:29:37;22.77;;;16.10;;
16288;SDS011;26089;43.538;5.250;2023-02-21T03:32:06;23.27;;;15.67;;
16288;SDS011;26089;43.538;5.250;2023-02-21T03:34:35;23.77;;;17.07;;
16288;SDS011;26089;43.538;5.250;2023-02-21T03:37:03;23.23;;;15.33;;
16288;SDS011;26089;43.538;5.250;2023-02-21T03:39:32;23.13;;;16.37;;
16288;SDS011;26089;43.538;5.250;2023-02-21T03:41:59;24.30;;;17.00;;
16288;SDS011;26089;43.538;5.250;2023-02-21T03:44:26;20.90;;;15.80;;
16288;SDS011;26089;43.538;5.250;2023-02-21T03:46:53;24.77;;;15.60;;
16288;SDS011;26089;43.538;5.250;2023-02-21T03:49:20;25.83;;;16.67;;
16288;SDS011;26089;43.538;5.250;2023-02-21T03:51:47;23.67;;;16.30;;
16288;SDS011;26089;43.538;5.250;2023-02-21T03:54:14;23.33;;;16.17;;
16288;SDS011;26089;43.538;5.250;2023-02-21T03:56:42;25.03;;;18.13;;
16288;SDS011;26089;43.538;5.250;2023-02-21T03:59:09;23.60;;;16.53;;
16288;SDS011;26089;43.538;5.250;2023-02-21T04:01:37;24.00;;;16.30;;
16288;SDS011;26089;43.538;5.250;2023-02-21T04:04:03;22.37;;;16.40;;
16288;SDS011;26089;43.538;5.250;2023-02-21T04:06:30;22.57;;;16.37;;
16288;SDS011;26089;43.538;5.250;2023-02-21T04:08:57;28.47;;;17.93;;
16288;SDS011;26089;43.538;5.250;2023-02-21T04:11:24;22.90;;;15.90;;
16288;SDS011;26089;43.538;5.250;2023-02-21T04:13:53;23.40;;;16.87;;
16288;SDS011;26089;43.538;5.250;2023-02-21T04:16:20;25.53;;;17.07;;
16288;SDS011;26089;43.538;5.250;2023-02-21T04:18:47;27.27;;;16.77;;
16288;SDS011;26089;43.538;5.250;2023-02-21T04:21:15;23.80;;;15.23;;
16288;SDS011;26089;43.538;5.250;2023-02-21T04:23:42;20.00;;;15.27;;
16288;SDS011;26089;43.538;5.250;2023-02-21T04:26:09;24.87;;;17.20;;
16288;SDS011;26089;43.538;5.250;2023-02-21T04:28:37;27.83;;;18.67;;
16288;SDS011;26089;43.538;5.250;2023-02-21T04:31:05;25.97;;;18.80;;
16288;SDS011;26089;43.538;5.250;2023-02-21T04:33:32;26.23;;;17.40;;
16288;SDS011;26089;43.538;5.250;2023-02-21T04:35:59;31.90;;;19.43;;
16288;SDS011;26089;43.538;5.250;2023-02-21T04:38:26;23.47;;;17.07;;
16288;SDS011;26089;43.538;5.250;2023-02-21T04:40:53;26.43;;;17.23;;
16288;SDS011;26089;43.538;5.250;2023-02-21T04:43:20;27.87;;;18.90;;
16288;SDS011;26089;43.538;5.250;2023-02-21T04:45:47;25.17;;;16.87;;
16288;SDS011;26089;43.538;5.250;2023-02-21T04:48:15;25.27;;;16.83;;
16288;SDS011;26089;43.538;5.250;2023-02-21T04:50:42;26.07;;;16.77;;
16288;SDS011;26089;43.538;5.250;2023-02-21T04:53:09;21.20;;;16.87;;
16288;SDS011;26089;43.538;5.250;2023-02-21T04:55:36;24.60;;;17.03;;
16288;SDS011;26089;43.538;5.250;2023-02-21T04:58:03;25.60;;;18.23;;
16288;SDS011;26089;43.538;5.250;2023-02-21T05:00:31;28.40;;;17.53;;
16288;SDS011;26089;43.538;5.250;2023-02-21T05:02:58;28.17;;;19.00;;
16288;SDS011;26089;43.538;5.250;2023-02-21T05:05:26;26.73;;;17.63;;
16288;SDS011;26089;43.538;5.250;2023-02-21T05:07:53;22.73;;;17.10;;
16288;SDS011;26089;43.538;5.250;2023-02-21T05:10:20;26.70;;;18.37;;
16288;SDS011;26089;43.538;5.250;2023-02-21T05:12:47;25.30;;;17.90;;
16288;SDS011;26089;43.538;5.250;2023-02-21T05:15:15;25.37;;;18.10;;
16288;SDS011;26089;43.538;5.250;2023-02-21T05:17:42;25.70;;;18.50;;
16288;SDS011;26089;43.538;5.250;2023-02-21T05:20:10;28.63;;;18.33;;
16288;SDS011;26089;43.538;5.250;2023-02-21T05:22:39;25.43;;;18.63;;
16288;SDS011;26089;43.538;5.250;2023-02-21T05:25:07;25.37;;;17.80;;
16288;SDS011;26089;43.538;5.250;2023-02-21T05:27:40;32.50;;;19.17;;
16288;SDS011;26089;43.538;5.250;2023-02-21T05:30:08;26.57;;;19.37;;
16288;SDS011;26089;43.538;5.250;2023-02-21T05:32:35;27.77;;;19.87;;
16288;SDS011;26089;43.538;5.250;2023-02-21T05:35:03;30.33;;;20.10;;
16288;SDS011;26089;43.538;5.250;2023-02-21T05:37:30;27.47;;;18.80;;
16288;SDS011;26089;43.538;5.250;2023-02-21T05:39:59;30.83;;;19.90;;
16288;SDS011;26089;43.538;5.250;2023-02-21T05:42:26;29.37;;;20.40;;
16288;SDS011;26089;43.538;5.250;2023-02-21T05:44:53;26.30;;;18.63;;
16288;SDS011;26089;43.538;5.250;2023-02-21T05:47:20;30.80;;;19.37;;
16288;SDS011;26089;43.538;5.250;2023-02-21T05:49:47;29.23;;;19.50;;
16288;SDS011;26089;43.538;5.250;2023-02-21T05:52:15;27.20;;;19.07;;
16288;SDS011;26089;43.538;5.250;2023-02-21T05:54:43;25.00;;;18.50;;
16288;SDS011;26089;43.538;5.250;2023-02-21T05:57:11;26.53;;;18.93;;
16288;SDS011;26089;43.538;5.250;2023-02-21T05:59:38;25.47;;;17.53;;
16288;SDS011;26089;43.538;5.250;2023-02-21T06:02:05;23.37;;;18.40;;
16288;SDS011;26089;43.538;5.250;2023-02-21T06:04:32;23.97;;;18.67;;
16288;SDS011;26089;43.538;5.250;2023-02-21T06:06:59;26.70;;;17.97;;
16288;SDS011;26089;43.538;5.250;2023-02-21T06:09:26;27.27;;;18.07;;
16288;SDS011;26089;43.538;5.250;2023-02-21T06:11:55;29.10;;;18.30;;
16288;SDS011;26089;43.538;5.250;2023-02-21T06:14:23;25.37;;;17.33;;
16288;SDS011;26089;43.538;5.250;2023-02-21T06:16:51;26.50;;;17.63;;
16288;SDS011;26089;43.538;5.250;2023-02-21T06:19:18;23.37;;;17.17;;
16288;SDS011;26089;43.538;5.250;2023-02-21T06:21:45;25.30;;;18.20;;
16288;SDS011;26089;43.538;5.250;2023-02-21T06:24:12;24.43;;;17.33;;
16288;SDS011;26089;43.538;5.250;2023-02-21T06:26:39;21.87;;;17.10;;
16288;SDS011;26089;43.538;5.250;2023-02-21T06:29:06;29.20;;;18.60;;
16288;SDS011;26089;43.538;5.250;2023-02-21T06:31:35;26.13;;;18.00;;
16288;SDS011;26089;43.538;5.250;2023-02-21T06:34:02;26.20;;;17.80;;
16288;SDS011;26089;43.538;5.250;2023-02-21T06:36:30;22.70;;;18.23;;
16288;SDS011;26089;43.538;5.250;2023-02-21T06:38:57;25.90;;;18.73;;
16288;SDS011;26089;43.538;5.250;2023-02-21T06:41:25;24.63;;;17.73;;
16288;SDS011;26089;43.538;5.250;2023-02-21T06:43:54;27.27;;;18.17;;
16288;SDS011;26089;43.538;5.250;2023-02-21T06:46:22;24.40;;;18.27;;
16288;SDS011;26089;43.538;5.250;2023-02-21T06:48:52;24.37;;;17.57;;
16288;SDS011;26089;43.538;5.250;2023-02-21T06:51:19;26.17;;;17.67;;
16288;SDS011;26089;43.538;5.250;2023-02-21T06:53:53;24.93;;;18.90;;
16288;SDS011;26089;43.538;5.250;2023-02-21T06:56:21;27.43;;;18.40;;
16288;SDS011;26089;43.538;5.250;2023-02-21T06:58:48;26.33;;;18.63;;
16288;SDS011;26089;43.538;5.250;2023-02-21T07:01:15;28.60;;;17.63;;
16288;SDS011;26089;43.538;5.250;2023-02-21T07:03:42;24.57;;;18.20;;
16288;SDS011;26089;43.538;5.250;2023-02-21T07:06:12;23.63;;;17.50;;
16288;SDS011;26089;43.538;5.250;2023-02-21T07:08:40;22.90;;;17.00;;
16288;SDS011;26089;43.538;5.250;2023-02-21T07:11:07;25.63;;;17.23;;
16288;SDS011;26089;43.538;5.250;2023-02-21T07:13:34;24.70;;;17.83;;
16288;SDS011;26089;43.538;5.250;2023-02-21T07:16:02;24.60;;;18.30;;
16288;SDS011;26089;43.538;5.250;2023-02-21T07:18:30;26.97;;;18.73;;
16288;SDS011;26089;43.538;5.250;2023-02-21T07:20:57;31.20;;;19.30;;
16288;SDS011;26089;43.538;5.250;2023-02-21T07:23:26;27.33;;;18.97;;
16288;SDS011;26089;43.538;5.250;2023-02-21T07:25:53;24.80;;;18.87;;
16288;SDS011;26089;43.538;5.250;2023-02-21T07:28:20;27.33;;;18.47;;
16288;SDS011;26089;43.538;5.250;2023-02-21T07:30:47;25.90;;;18.63;;
16288;SDS011;26089;43.538;5.250;2023-02-21T07:33:14;30.73;;;20.00;;
16288;SDS011;26089;43.538;5.250;2023-02-21T07:35:41;28.97;;;18.97;;
16288;SDS011;26089;43.538;5.250;2023-02-21T07:38:08;31.17;;;20.80;;
16288;SDS011;26089;43.538;5.250;2023-02-21T07:40:36;36.53;;;24.13;;
16288;SDS011;26089;43.538;5.250;2023-02-21T07:43:03;30.20;;;20.10;;
16288;SDS011;26089;43.538;5.250;2023-02-21T07:45:30;25.83;;;17.63;;
16288;SDS011;26089;43.538;5.250;2023-02-21T07:47:57;22.93;;;17.63;;
16288;SDS011;26089;43.538;5.250;2023-02-21T07:50:24;24.73;;;17.30;;
16288;SDS011;26089;43.538;5.250;2023-02-21T07:52:51;24.23;;;17.33;;
16288;SDS011;26089;43.538;5.250;2023-02-21T07:55:18;24.87;;;17.67;;
16288;SDS011;26089;43.538;5.250;2023-02-21T07:57:47;29.53;;;17.63;;
16288;SDS011;26089;43.538;5.250;2023-02-21T08:00:14;28.27;;;17.70;;
16288;SDS011;26089;43.538;5.250;2023-02-21T08:02:45;26.77;;;19.10;;
16288;SDS011;26089;43.538;5.250;2023-02-21T08:05:14;25.73;;;17.77;;
16288;SDS011;26089;43.538;5.250;2023-02-21T08:07:41;24.50;;;17.00;;
16288;SDS011;26089;43.538;5.250;2023-02-21T08:10:09;28.03;;;18.00;;
16288;SDS011;26089;43.538;5.250;2023-02-21T08:12:36;26.03;;;17.77;;
16288;SDS011;26089;43.538;5.250;2023-02-21T08:15:05;25.10;;;17.33;;
16288;SDS011;26089;43.538;5.250;2023-02-21T08:17:33;26.00;;;16.50;;
16288;SDS011;26089;43.538;5.250;2023-02-21T08:20:00;26.87;;;18.40;;
16288;SDS011;26089;43.538;5.250;2023-02-21T08:22:30;23.03;;;15.73;;
16288;SDS011;26089;43.538;5.250;2023-02-21T08:24:57;22.03;;;16.40;;
16288;SDS011;26089;43.538;5.250;2023-02-21T08:27:24;21.20;;;15.97;;
16288;SDS011;26089;43.538;5.250;2023-02-21T08:29:51;23.17;;;16.20;;
16288;SDS011;26089;43.538;5.250;2023-02-21T08:32:19;23.37;;;16.63;;
16288;SDS011;26089;43.538;5.250;2023-02-21T08:34:47;26.30;;;16.90;;
16288;SDS011;26089;43.538;5.250;2023-02-21T08:37:14;23.23;;;15.63;;
16288;SDS011;26089;43.538;5.250;2023-02-21T08:39:44;25.50;;;17.63;;
16288;SDS011;26089;43.538;5.250;2023-02-21T08:42:11;21.27;;;15.67;;
16288;SDS011;26089;43.538;5.250;2023-02-21T08:44:38;22.83;;;17.50;;
16288;SDS011;26089;43.538;5.250;2023-02-21T08:47:08;24.20;;;18.03;;
16288;SDS011;26089;43.538;5.250;2023-02-21T08:49:37;28.97;;;19.63;;
16288;SDS011;26089;43.538;5.250;2023-02-21T08:52:06;30.80;;;20.93;;
16288;SDS011;26089;43.538;5.250;2023-02-21T08:54:33;25.47;;;17.30;;
16288;SDS011;26089;43.538;5.250;2023-02-21T08:57:00;25.13;;;18.33;;
16288;SDS011;26089;43.538;5.250;2023-02-21T08:59:27;31.17;;;20.33;;
16288;SDS011;26089;43.538;5.250;2023-02-21T09:01:57;28.50;;;19.47;;
16288;SDS011;26089;43.538;5.250;2023-02-21T09:04:25;28.87;;;17.63;;
16288;SDS011;26089;43.538;5.250;2023-02-21T09:06:53;25.60;;;18.03;;
16288;SDS011;26089;43.538;5.250;2023-02-21T09:09:20;28.30;;;16.93;;
16288;SDS011;26089;43.538;5.250;2023-02-21T09:11:48;30.37;;;19.37;;
16288;SDS011;26089;43.538;5.250;2023-02-21T09:14:15;26.27;;;18.10;;
16288;SDS011;26089;43.538;5.250;2023-02-21T09:16:42;27.73;;;18.60;;
16288;SDS011;26089;43.538;5.250;2023-02-21T09:19:09;26.33;;;17.87;;
16288;SDS011;26089;43.538;5.250;2023-02-21T09:21:37;24.03;;;17.47;;
16288;SDS011;26089;43.538;5.250;2023-02-21T09:24:11;24.37;;;17.53;;
16288;SDS011;26089;43.538;5.250;2023-02-21T09:26:39;23.60;;;14.83;;
16288;SDS011;26089;43.538;5.250;2023-02-21T09:29:06;20.47;;;15.37;;
16288;SDS011;26089;43.538;5.250;2023-02-21T09:31:36;17.30;;;13.70;;
16288;SDS011;26089;43.538;5.250;2023-02-21T09:34:03;18.57;;;13.23;;
16288;SDS011;26089;43.538;5.250;2023-02-21T09:36:30;15.50;;;10.90;;
16288;SDS011;26089;43.538;5.250;2023-02-21T09:38:57;13.40;;;9.83;;
16288;SDS011;26089;43.538;5.250;2023-02-21T09:41:25;14.10;;;9.30;;
16288;SDS011;26089;43.538;5.250;2023-02-21T09:43:53;9.77;;;7.87;;
16288;SDS011;26089;43.538;5.250;2023-02-21T09:46:23;11.27;;;7.53;;
16288;SDS011;26089;43.538;5.250;2023-02-21T09:48:57;11.77;;;9.40;;
16288;SDS011;26089;43.538;5.250;2023-02-21T09:51:25;13.30;;;10.63;;
16288;SDS011;26089;43.538;5.250;2023-02-21T09:53:53;13.83;;;9.50;;
16288;SDS011;26089;43.538;5.250;2023-02-21T09:56:26;11.73;;;9.17;;
16288;SDS011;26089;43.538;5.250;2023-02-21T09:58:56;13.57;;;9.57;;
16288;SDS011;26089;43.538;5.250;2023-02-21T10:01:24;10.80;;;8.30;;
16288;SDS011;26089;43.538;5.250;2023-02-21T10:04:05;10.00;;;8.97;;
16288;SDS011;26089;43.538;5.250;2023-02-21T10:06:41;12.63;;;9.27;;
16288;SDS011;26089;43.538;5.250;2023-02-21T10:09:16;12.77;;;9.00;;
16288;SDS011;26089;43.538;5.250;2023-02-21T10:11:54;12.13;;;8.50;;
16288;SDS011;26089;43.538;5.250;2023-02-21T10:14:29;9.83;;;7.97;;
16288;SDS011;26089;43.538;5.250;2023-02-21T10:17:09;9.10;;;8.20;;
16288;SDS011;26089;43.538;5.250;2023-02-21T10:19:43;10.63;;;8.80;;
16288;SDS011;26089;43.538;5.250;2023-02-21T10:22:13;9.30;;;7.67;;
16288;SDS011;26089;43.538;5.250;2023-02-21T10:24:46;10.37;;;8.00;;
16288;SDS011;26089;43.538;5.250;2023-02-21T10:27:17;10.57;;;7.60;;
16288;SDS011;26089;43.538;5.250;2023-02-21T10:29:47;8.70;;;7.80;;
16288;SDS011;26089;43.538;5.250;2023-02-21T10:32:19;9.30;;;7.43;;
16288;SDS011;26089;43.538;5.250;2023-02-21T10:34:47;10.30;;;8.23;;
16288;SDS011;26089;43.538;5.250;2023-02-21T10:37:24;7.93;;;7.07;;
16288;SDS011;26089;43.538;5.250;2023-02-21T10:40:00;9.67;;;7.40;;
16288;SDS011;26089;43.538;5.250;2023-02-21T10:42:35;11.73;;;7.27;;
16288;SDS011;26089;43.538;5.250;2023-02-21T10:45:06;8.37;;;7.33;;
16288;SDS011;26089;43.538;5.250;2023-02-21T10:47:38;12.20;;;7.10;;
16288;SDS011;26089;43.538;5.250;2023-02-21T10:50:13;8.97;;;7.63;;
16288;SDS011;26089;43.538;5.250;2023-02-21T10:52:46;8.73;;;7.40;;
16288;SDS011;26089;43.538;5.250;2023-02-21T10:55:15;12.93;;;7.87;;
16288;SDS011;26089;43.538;5.250;2023-02-21T10:57:44;12.13;;;7.03;;
16288;SDS011;26089;43.538;5.250;2023-02-21T11:00:21;8.80;;;7.20;;
16288;SDS011;26089;43.538;5.250;2023-02-21T11:02:52;9.40;;;7.20;;
16288;SDS011;26089;43.538;5.250;2023-02-21T11:05:22;8.10;;;6.47;;
16288;SDS011;26089;43.538;5.250;2023-02-21T11:07:56;9.43;;;6.73;;
16288;SDS011;26089;43.538;5.250;2023-02-21T11:10:26;11.20;;;7.50;;
16288;SDS011;26089;43.538;5.250;2023-02-21T11:13:05;9.83;;;7.13;;
16288;SDS011;26089;43.538;5.250;2023-02-21T11:15:38;7.90;;;7.10;;
16288;SDS011;26089;43.538;5.250;2023-02-21T11:18:09;7.60;;;6.20;;
16288;SDS011;26089;43.538;5.250;2023-02-21T11:20:39;10.13;;;7.10;;
16288;SDS011;26089;43.538;5.250;2023-02-21T11:23:16;9.93;;;7.03;;
16288;SDS011;26089;43.538;5.250;2023-02-21T11:25:45;10.37;;;7.73;;
16288;SDS011;26089;43.538;5.250;2023-02-21T11:28:19;9.67;;;7.70;;
16288;SDS011;26089;43.538;5.250;2023-02-21T11:30:48;10.73;;;7.47;;
16288;SDS011;26089;43.538;5.250;2023-02-21T11:33:28;9.33;;;7.80;;
16288;SDS011;26089;43.538;5.250;2023-02-21T11:36:06;11.60;;;7.43;;
16288;SDS011;26089;43.538;5.250;2023-02-21T11:38:36;12.77;;;8.07;;
16288;SDS011;26089;43.538;5.250;2023-02-21T11:41:14;10.87;;;8.50;;
16288;SDS011;26089;43.538;5.250;2023-02-21T11:43:46;8.97;;;7.73;;
16288;SDS011;26089;43.538;5.250;2023-02-21T11:46:16;12.73;;;7.93;;
16288;SDS011;26089;43.538;5.250;2023-02-21T11:48:56;8.80;;;7.73;;
16288;SDS011;26089;43.538;5.250;2023-02-21T11:51:30;11.07;;;8.10;;
16288;SDS011;26089;43.538;5.250;2023-02-21T11:54:02;8.53;;;7.10;;
16288;SDS011;26089;43.538;5.250;2023-02-21T11:56:35;9.37;;;6.53;;
16288;SDS011;26089;43.538;5.250;2023-02-21T12:02:05;8.00;;;7.17;;
16288;SDS011;26089;43.538;5.250;2023-02-21T12:05:06;12.47;;;6.80;;
16288;SDS011;26089;43.538;5.250;2023-02-21T12:07:45;7.90;;;6.73;;
16288;SDS011;26089;43.538;5.250;2023-02-21T12:10:27;9.20;;;7.23;;
16288;SDS011;26089;43.538;5.250;2023-02-21T12:13:07;9.43;;;6.90;;
16288;SDS011;26089;43.538;5.250;2023-02-21T12:15:50;7.80;;;7.00;;
16288;SDS011;26089;43.538;5.250;2023-02-21T12:18:27;11.37;;;7.20;;
16288;SDS011;26089;43.538;5.250;2023-02-21T12:21:07;9.47;;;7.17;;
16288;SDS011;26089;43.538;5.250;2023-02-21T12:23:55;12.10;;;7.60;;
16288;SDS011;26089;43.538;5.250;2023-02-21T12:26:30;11.07;;;7.37;;
16288;SDS011;26089;43.538;5.250;2023-02-21T12:29:13;9.83;;;7.10;;
16288;SDS011;26089;43.538;5.250;2023-02-21T12:31:57;12.17;;;7.03;;
16288;SDS011;26089;43.538;5.250;2023-02-21T12:34:42;7.80;;;6.53;;
16288;SDS011;26089;43.538;5.250;2023-02-21T12:37:22;11.63;;;7.87;;
16288;SDS011;26089;43.538;5.250;2023-02-21T12:42:49;9.70;;;7.43;;
16288;SDS011;26089;43.538;5.250;2023-02-21T12:45:30;8.80;;;6.73;;
16288;SDS011;26089;43.538;5.250;2023-02-21T12:48:11;7.47;;;6.77;;
16288;SDS011;26089;43.538;5.250;2023-02-21T12:50:45;8.03;;;6.70;;
16288;SDS011;26089;43.538;5.250;2023-02-21T12:53:16;9.90;;;7.40;;
16288;SDS011;26089;43.538;5.250;2023-02-21T12:55:50;10.40;;;7.13;;
16288;SDS011;26089;43.538;5.250;2023-02-21T12:58:22;8.40;;;6.67;;
16288;SDS011;26089;43.538;5.250;2023-02-21T13:00:54;8.63;;;6.97;;
16288;SDS011;26089;43.538;5.250;2023-02-21T13:03:31;9.63;;;7.00;;
16288;SDS011;26089;43.538;5.250;2023-02-21T13:06:05;8.53;;;6.67;;
16288;SDS011;26089;43.538;5.250;2023-02-21T13:08:44;10.80;;;7.00;;
16288;SDS011;26089;43.538;5.250;2023-02-21T13:11:20;8.83;;;6.97;;
16288;SDS011;26089;43.538;5.250;2023-02-21T13:13:49;11.00;;;7.10;;
16288;SDS011;26089;43.538;5.250;2023-02-21T13:16:16;12.03;;;7.80;;
16288;SDS011;26089;43.538;5.250;2023-02-21T13:18:47;8.53;;;7.20;;
16288;SDS011;26089;43.538;5.250;2023-02-21T13:21:25;10.07;;;7.27;;
16288;SDS011;26089;43.538;5.250;2023-02-21T13:30:10;9.27;;;6.73;;
16288;SDS011;26089;43.538;5.250;2023-02-21T13:32:39;7.03;;;6.10;;
16288;SDS011;26089;43.538;5.250;2023-02-21T13:35:18;9.40;;;6.70;;
16288;SDS011;26089;43.538;5.250;2023-02-21T13:37:51;7.97;;;6.00;;
16288;SDS011;26089;43.538;5.250;2023-02-21T13:40:21;8.57;;;6.03;;
16288;SDS011;26089;43.538;5.250;2023-02-21T13:42:57;8.37;;;5.93;;
16288;SDS011;26089;43.538;5.250;2023-02-21T13:45:28;7.10;;;6.40;;
16288;SDS011;26089;43.538;5.250;2023-02-21T13:48:17;8.43;;;6.03;;
16288;SDS011;26089;43.538;5.250;2023-02-21T13:50:48;7.73;;;5.87;;
16288;SDS011;26089;43.538;5.250;2023-02-21T13:53:17;8.43;;;5.70;;
16288;SDS011;26089;43.538;5.250;2023-02-21T13:58:39;8.83;;;6.03;;
16288;SDS011;26089;43.538;5.250;2023-02-21T14:01:13;7.90;;;5.97;;
16288;SDS011;26089;43.538;5.250;2023-02-21T14:03:47;6.30;;;5.67;;
16288;SDS011;26089;43.538;5.250;2023-02-21T14:06:27;8.23;;;5.60;;
16288;SDS011;26089;43.538;5.250;2023-02-21T14:08:59;7.57;;;5.67;;
16288;SDS011;26089;43.538;5.250;2023-02-21T14:11:33;7.23;;;5.60;;
16288;SDS011;26089;43.538;5.250;2023-02-21T14:14:03;7.70;;;5.37;;
16288;SDS011;26089;43.538;5.250;2023-02-21T14:16:45;6.83;;;5.73;;
16288;SDS011;26089;43.538;5.250;2023-02-21T14:19:18;6.63;;;5.93;;
16288;SDS011;26089;43.538;5.250;2023-02-21T14:21:54;9.07;;;5.37;;
16288;SDS011;26089;43.538;5.250;2023-02-21T14:24:27;7.27;;;5.20;;
16288;SDS011;26089;43.538;5.250;2023-02-21T14:27:00;7.77;;;4.83;;
16288;SDS011;26089;43.538;5.250;2023-02-21T14:29:35;8.70;;;5.37;;
16288;SDS011;26089;43.538;5.250;2023-02-21T14:32:22;8.07;;;4.97;;
16288;SDS011;26089;43.538;5.250;2023-02-21T14:34:58;5.63;;;4.97;;
16288;SDS011;26089;43.538;5.250;2023-02-21T14:37:31;6.43;;;5.43;;
16288;SDS011;26089;43.538;5.250;2023-02-21T14:40:02;6.23;;;4.73;;
16288;SDS011;26089;43.538;5.250;2023-02-21T14:42:45;7.87;;;5.00;;
16288;SDS011;26089;43.538;5.250;2023-02-21T14:45:28;8.53;;;5.37;;
16288;SDS011;26089;43.538;5.250;2023-02-21T14:48:07;6.13;;;4.63;;
16288;SDS011;26089;43.538;5.250;2023-02-21T14:51:06;6.43;;;4.97;;
16288;SDS011;26089;43.538;5.250;2023-02-21T14:56:56;6.23;;;5.00;;
16288;SDS011;26089;43.538;5.250;2023-02-21T14:59:35;8.40;;;4.83;;
16288;SDS011;26089;43.538;5.250;2023-02-21T15:02:20;7.50;;;5.00;;
16288;SDS011;26089;43.538;5.250;2023-02-21T15:04:54;5.73;;;4.73;;
16288;SDS011;26089;43.538;5.250;2023-02-21T15:07:27;7.53;;;5.30;;
16288;SDS011;26089;43.538;5.250;2023-02-21T15:10:16;7.53;;;4.73;;
16288;SDS011;26089;43.538;5.250;2023-02-21T15:12:45;6.93;;;5.37;;
16288;SDS011;26089;43.538;5.250;2023-02-21T15:15:15;7.73;;;4.87;;
16288;SDS011;26089;43.538;5.250;2023-02-21T15:17:53;7.90;;;5.27;;
16288;SDS011;26089;43.538;5.250;2023-02-21T15:20:26;6.20;;;4.53;;
16288;SDS011;26089;43.538;5.250;2023-02-21T15:22:55;7.10;;;5.10;;
16288;SDS011;26089;43.538;5.250;2023-02-21T15:25:24;8.47;;;5.40;;
16288;SDS011;26089;43.538;5.250;2023-02-21T15:27:53;5.87;;;5.27;;
16288;SDS011;26089;43.538;5.250;2023-02-21T15:30:32;6.93;;;5.80;;